sensor_id;sensor_type;location;lat;lon;timestamp;temperature;humidity
8537;DHT22;4306;50.210;10.628;2023-05-10T00:01:21;15.70;77.10
8537;DHT22;4306;50.210;10.628;2023-05-10T00:03:48;15.70;78.40
8537;DHT22;4306;50.210;10.628;2023-05-10T00:06:15;15.70;80.70
8537;DHT22;4306;50.210;10.628;2023-05-10T00:08:42;15.60;81.20
8537;DHT22;4306;50.210;10.628;2023-05-10T00:11:08;15.60;82.40
8537;DHT22;4306;50.210;10.628;2023-05-10T00:13:35;15.60;82.30
8537;DHT22;4306;50.210;10.628;2023-05-10T00:16:02;15.50;82.60
8537;DHT22;4306;50.210;10.628;2023-05-10T00:18:30;15.50;83.50
8537;DHT22;4306;50.210;10.628;2023-05-10T00:20:57;15.50;84.70
8537;DHT22;4306;50.210;10.628;2023-05-10T00:23:24;15.40;85.40
8537;DHT22;4306;50.210;10.628;2023-05-10T00:25:51;15.40;85.90
8537;DHT22;4306;50.210;10.628;2023-05-10T00:28:18;15.30;86.60
8537;DHT22;4306;50.210;10.628;2023-05-10T00:30:45;15.20;87.40
8537;DHT22;4306;50.210;10.628;2023-05-10T00:33:11;15.20;87.90
8537;DHT22;4306;50.210;10.628;2023-05-10T00:35:39;15.10;89.10
8537;DHT22;4306;50.210;10.628;2023-05-10T00:38:06;15.10;89.80
8537;DHT22;4306;50.210;10.628;2023-05-10T00:40:35;15.00;90.20
8537;DHT22;4306;50.210;10.628;2023-05-10T00:43:02;15.00;90.60
8537;DHT22;4306;50.210;10.628;2023-05-10T00:45:30;14.90;91.00
8537;DHT22;4306;50.210;10.628;2023-05-10T00:47:57;14.90;91.60
8537;DHT22;4306;50.210;10.628;2023-05-10T00:50:25;14.80;91.90
8537;DHT22;4306;50.210;10.628;2023-05-10T00:52:53;14.80;91.90
8537;DHT22;4306;50.210;10.628;2023-05-10T00:55:21;14.70;92.70
8537;DHT22;4306;50.210;10.628;2023-05-10T00:57:48;15.00;93.30
8537;DHT22;4306;50.210;10.628;2023-05-10T01:00:15;14.60;93.50
8537;DHT22;4306;50.210;10.628;2023-05-10T01:02:43;14.60;93.90
8537;DHT22;4306;50.210;10.628;2023-05-10T01:05:10;14.60;95.00
8537;DHT22;4306;50.210;10.628;2023-05-10T01:07:38;14.60;95.30
8537;DHT22;4306;50.210;10.628;2023-05-10T01:10:07;14.70;96.30
8537;DHT22;4306;50.210;10.628;2023-05-10T01:12:37;14.40;98.10
8537;DHT22;4306;50.210;10.628;2023-05-10T01:15:05;14.40;98.80
8537;DHT22;4306;50.210;10.628;2023-05-10T01:17:33;14.40;99.60
8537;DHT22;4306;50.210;10.628;2023-05-10T01:20:01;14.30;99.90
8537;DHT22;4306;50.210;10.628;2023-05-10T01:25:36;14.30;99.90
8537;DHT22;4306;50.210;10.628;2023-05-10T01:28:31;14.30;99.90
8537;DHT22;4306;50.210;10.628;2023-05-10T01:31:13;14.20;99.90
8537;DHT22;4306;50.210;10.628;2023-05-10T01:33:52;14.20;99.90
8537;DHT22;4306;50.210;10.628;2023-05-10T01:36:25;14.20;99.90
8537;DHT22;4306;50.210;10.628;2023-05-10T01:38:57;14.20;99.90
8537;DHT22;4306;50.210;10.628;2023-05-10T01:41:28;14.20;99.90
8537;DHT22;4306;50.210;10.628;2023-05-10T01:44:02;14.20;99.90
8537;DHT22;4306;50.210;10.628;2023-05-10T01:46:35;14.20;99.90
8537;DHT22;4306;50.210;10.628;2023-05-10T01:49:08;14.00;99.90
8537;DHT22;4306;50.210;10.628;2023-05-10T01:51:40;14.20;99.90
8537;DHT22;4306;50.210;10.628;2023-05-10T01:54:09;14.20;99.90
8537;DHT22;4306;50.210;10.628;2023-05-10T01:56:38;14.30;99.90
8537;DHT22;4306;50.210;10.628;2023-05-10T01:59:08;14.30;99.90
8537;DHT22;4306;50.210;10.628;2023-05-10T02:01:38;14.30;99.90
8537;DHT22;4306;50.210;10.628;2023-05-10T02:04:07;14.30;99.90
8537;DHT22;4306;50.210;10.628;2023-05-10T02:06:38;14.00;99.90
8537;DHT22;4306;50.210;10.628;2023-05-10T02:09:06;14.30;99.90
8537;DHT22;4306;50.210;10.628;2023-05-10T02:11:34;14.30;99.90
8537;DHT22;4306;50.210;10.628;2023-05-10T02:14:05;14.20;99.90
8537;DHT22;4306;50.210;10.628;2023-05-10T02:16:35;14.30;99.90
8537;DHT22;4306;50.210;10.628;2023-05-10T02:19:03;14.20;99.90
8537;DHT22;4306;50.210;10.628;2023-05-10T02:21:33;14.20;99.90
8537;DHT22;4306;50.210;10.628;2023-05-10T02:24:01;14.20;99.90
8537;DHT22;4306;50.210;10.628;2023-05-10T02:26:29;14.30;99.90
8537;DHT22;4306;50.210;10.628;2023-05-10T02:28:58;14.30;99.90
8537;DHT22;4306;50.210;10.628;2023-05-10T02:31:25;14.30;99.90
8537;DHT22;4306;50.210;10.628;2023-05-10T02:33:53;14.30;99.90
8537;DHT22;4306;50.210;10.628;2023-05-10T02:36:21;14.30;99.90
8537;DHT22;4306;50.210;10.628;2023-05-10T02:38:51;14.30;99.90
8537;DHT22;4306;50.210;10.628;2023-05-10T02:41:19;14.20;99.90
8537;DHT22;4306;50.210;10.628;2023-05-10T02:43:49;14.30;99.90
8537;DHT22;4306;50.210;10.628;2023-05-10T02:46:17;14.30;99.90
8537;DHT22;4306;50.210;10.628;2023-05-10T02:48:44;14.30;99.90
8537;DHT22;4306;50.210;10.628;2023-05-10T02:51:12;14.30;99.90
8537;DHT22;4306;50.210;10.628;2023-05-10T02:53:44;14.40;99.90
8537;DHT22;4306;50.210;10.628;2023-05-10T02:56:24;14.20;99.90
8537;DHT22;4306;50.210;10.628;2023-05-10T02:58:52;14.40;99.90
8537;DHT22;4306;50.210;10.628;2023-05-10T03:01:19;14.40;99.90
8537;DHT22;4306;50.210;10.628;2023-05-10T03:03:46;14.40;99.90
8537;DHT22;4306;50.210;10.628;2023-05-10T03:06:13;14.40;99.90
8537;DHT22;4306;50.210;10.628;2023-05-10T03:08:40;14.40;99.90
8537;DHT22;4306;50.210;10.628;2023-05-10T03:11:21;14.50;99.90
8537;DHT22;4306;50.210;10.628;2023-05-10T03:14:00;14.50;99.90
8537;DHT22;4306;50.210;10.628;2023-05-10T03:16:36;14.50;99.90
8537;DHT22;4306;50.210;10.628;2023-05-10T03:19:12;14.50;99.90
8537;DHT22;4306;50.210;10.628;2023-05-10T03:21:44;14.50;99.90
8537;DHT22;4306;50.210;10.628;2023-05-10T03:24:14;14.70;99.90
8537;DHT22;4306;50.210;10.628;2023-05-10T03:26:43;14.50;99.90
8537;DHT22;4306;50.210;10.628;2023-05-10T03:29:13;14.60;99.90
8537;DHT22;4306;50.210;10.628;2023-05-10T03:31:40;14.60;99.90
8537;DHT22;4306;50.210;10.628;2023-05-10T03:34:07;14.50;99.90
8537;DHT22;4306;50.210;10.628;2023-05-10T03:36:34;14.50;99.90
8537;DHT22;4306;50.210;10.628;2023-05-10T03:39:01;14.50;99.90
8537;DHT22;4306;50.210;10.628;2023-05-10T03:41:29;14.50;99.90
8537;DHT22;4306;50.210;10.628;2023-05-10T03:43:57;14.50;99.90
8537;DHT22;4306;50.210;10.628;2023-05-10T03:46:24;14.20;99.90
8537;DHT22;4306;50.210;10.628;2023-05-10T03:48:51;14.20;99.90
8537;DHT22;4306;50.210;10.628;2023-05-10T03:51:17;13.90;99.90
8537;DHT22;4306;50.210;10.628;2023-05-10T03:53:44;14.00;99.90
8537;DHT22;4306;50.210;10.628;2023-05-10T03:56:11;14.10;99.90
8537;DHT22;4306;50.210;10.628;2023-05-10T03:58:38;14.10;99.90
8537;DHT22;4306;50.210;10.628;2023-05-10T04:01:06;14.20;99.90
8537;DHT22;4306;50.210;10.628;2023-05-10T04:03:33;14.20;99.90
8537;DHT22;4306;50.210;10.628;2023-05-10T04:06:02;14.20;99.90
8537;DHT22;4306;50.210;10.628;2023-05-10T04:08:29;14.20;99.90
8537;DHT22;4306;50.210;10.628;2023-05-10T04:11:04;14.20;99.90
8537;DHT22;4306;50.210;10.628;2023-05-10T04:13:31;14.20;99.90
8537;DHT22;4306;50.210;10.628;2023-05-10T04:15:58;14.20;99.90
8537;DHT22;4306;50.210;10.628;2023-05-10T04:18:26;14.10;99.90
8537;DHT22;4306;50.210;10.628;2023-05-10T04:20:53;14.10;99.90
8537;DHT22;4306;50.210;10.628;2023-05-10T04:23:20;14.10;99.90
8537;DHT22;4306;50.210;10.628;2023-05-10T04:25:47;14.10;99.90
8537;DHT22;4306;50.210;10.628;2023-05-10T04:28:14;14.10;99.90
8537;DHT22;4306;50.210;10.628;2023-05-10T04:30:40;14.10;99.90
8537;DHT22;4306;50.210;10.628;2023-05-10T04:33:07;14.10;99.90
8537;DHT22;4306;50.210;10.628;2023-05-10T04:35:36;14.00;99.90
8537;DHT22;4306;50.210;10.628;2023-05-10T04:38:02;13.80;99.90
8537;DHT22;4306;50.210;10.628;2023-05-10T04:40:29;13.80;99.90
8537;DHT22;4306;50.210;10.628;2023-05-10T04:42:56;13.90;99.90
8537;DHT22;4306;50.210;10.628;2023-05-10T04:45:23;13.80;99.90
8537;DHT22;4306;50.210;10.628;2023-05-10T04:47:50;13.60;99.90
8537;DHT22;4306;50.210;10.628;2023-05-10T04:50:17;13.70;99.90
8537;DHT22;4306;50.210;10.628;2023-05-10T04:52:45;13.70;99.90
8537;DHT22;4306;50.210;10.628;2023-05-10T04:55:11;13.60;99.90
8537;DHT22;4306;50.210;10.628;2023-05-10T04:57:39;13.70;99.90
8537;DHT22;4306;50.210;10.628;2023-05-10T05:00:07;13.80;99.90
8537;DHT22;4306;50.210;10.628;2023-05-10T05:02:33;13.80;99.90
8537;DHT22;4306;50.210;10.628;2023-05-10T05:05:00;13.80;99.90
8537;DHT22;4306;50.210;10.628;2023-05-10T05:07:27;13.80;99.90
8537;DHT22;4306;50.210;10.628;2023-05-10T05:09:57;13.80;99.90
8537;DHT22;4306;50.210;10.628;2023-05-10T05:12:24;13.80;99.90
8537;DHT22;4306;50.210;10.628;2023-05-10T05:14:50;13.90;99.90
8537;DHT22;4306;50.210;10.628;2023-05-10T05:17:17;13.70;99.90
8537;DHT22;4306;50.210;10.628;2023-05-10T05:19:44;14.00;99.90
8537;DHT22;4306;50.210;10.628;2023-05-10T05:22:11;13.70;99.90
8537;DHT22;4306;50.210;10.628;2023-05-10T05:24:37;13.80;99.90
8537;DHT22;4306;50.210;10.628;2023-05-10T05:27:06;13.80;99.90
8537;DHT22;4306;50.210;10.628;2023-05-10T05:29:33;13.70;99.90
8537;DHT22;4306;50.210;10.628;2023-05-10T05:32:00;13.80;99.90
8537;DHT22;4306;50.210;10.628;2023-05-10T05:34:26;13.80;99.90
8537;DHT22;4306;50.210;10.628;2023-05-10T05:36:53;13.80;99.90
8537;DHT22;4306;50.210;10.628;2023-05-10T05:39:20;13.90;99.90
8537;DHT22;4306;50.210;10.628;2023-05-10T05:41:47;13.90;99.90
8537;DHT22;4306;50.210;10.628;2023-05-10T05:44:15;14.00;99.90
8537;DHT22;4306;50.210;10.628;2023-05-10T05:46:42;13.90;99.90
8537;DHT22;4306;50.210;10.628;2023-05-10T05:49:09;13.90;99.90
8537;DHT22;4306;50.210;10.628;2023-05-10T05:51:36;13.90;99.90
8537;DHT22;4306;50.210;10.628;2023-05-10T05:54:03;13.90;99.90
8537;DHT22;4306;50.210;10.628;2023-05-10T05:56:30;13.80;99.90
8537;DHT22;4306;50.210;10.628;2023-05-10T05:58:57;13.80;99.90
8537;DHT22;4306;50.210;10.628;2023-05-10T06:01:25;13.90;99.90
8537;DHT22;4306;50.210;10.628;2023-05-10T06:03:51;13.90;99.90
8537;DHT22;4306;50.210;10.628;2023-05-10T06:06:18;13.60;99.90
8537;DHT22;4306;50.210;10.628;2023-05-10T06:08:45;13.50;99.90
8537;DHT22;4306;50.210;10.628;2023-05-10T06:11:12;13.60;99.90
8537;DHT22;4306;50.210;10.628;2023-05-10T06:13:38;13.50;99.90
8537;DHT22;4306;50.210;10.628;2023-05-10T06:16:06;13.60;99.90
8537;DHT22;4306;50.210;10.628;2023-05-10T06:18:34;13.80;99.90
8537;DHT22;4306;50.210;10.628;2023-05-10T06:21:01;13.90;99.90
8537;DHT22;4306;50.210;10.628;2023-05-10T06:23:28;14.00;99.90
8537;DHT22;4306;50.210;10.628;2023-05-10T06:25:55;14.10;99.90
8537;DHT22;4306;50.210;10.628;2023-05-10T06:28:22;14.10;99.90
8537;DHT22;4306;50.210;10.628;2023-05-10T06:30:48;14.30;99.90
8537;DHT22;4306;50.210;10.628;2023-05-10T06:33:15;14.30;99.90
8537;DHT22;4306;50.210;10.628;2023-05-10T06:35:43;14.50;99.90
8537;DHT22;4306;50.210;10.628;2023-05-10T06:38:10;14.70;99.90
8537;DHT22;4306;50.210;10.628;2023-05-10T06:40:40;14.60;99.90
8537;DHT22;4306;50.210;10.628;2023-05-10T06:43:07;14.60;99.90
8537;DHT22;4306;50.210;10.628;2023-05-10T06:45:34;14.70;99.90
8537;DHT22;4306;50.210;10.628;2023-05-10T06:48:00;14.70;99.90
8537;DHT22;4306;50.210;10.628;2023-05-10T06:50:28;14.80;99.90
8537;DHT22;4306;50.210;10.628;2023-05-10T06:52:56;14.80;99.90
8537;DHT22;4306;50.210;10.628;2023-05-10T06:55:22;14.90;99.90
8537;DHT22;4306;50.210;10.628;2023-05-10T06:57:49;14.90;99.90
8537;DHT22;4306;50.210;10.628;2023-05-10T07:00:17;14.90;99.90
8537;DHT22;4306;50.210;10.628;2023-05-10T07:02:44;14.80;99.90
8537;DHT22;4306;50.210;10.628;2023-05-10T07:05:11;14.80;99.90
8537;DHT22;4306;50.210;10.628;2023-05-10T07:07:38;14.50;99.90
8537;DHT22;4306;50.210;10.628;2023-05-10T07:10:07;14.50;99.90
8537;DHT22;4306;50.210;10.628;2023-05-10T07:12:34;14.60;99.90
8537;DHT22;4306;50.210;10.628;2023-05-10T07:15:01;14.80;99.90
8537;DHT22;4306;50.210;10.628;2023-05-10T07:17:28;15.00;99.90
8537;DHT22;4306;50.210;10.628;2023-05-10T07:19:55;15.20;99.90
8537;DHT22;4306;50.210;10.628;2023-05-10T07:22:22;15.30;99.90
8537;DHT22;4306;50.210;10.628;2023-05-10T07:24:48;15.40;99.90
8537;DHT22;4306;50.210;10.628;2023-05-10T07:27:16;15.50;99.90
8537;DHT22;4306;50.210;10.628;2023-05-10T07:29:43;15.80;99.90
8537;DHT22;4306;50.210;10.628;2023-05-10T07:32:10;15.70;99.90
8537;DHT22;4306;50.210;10.628;2023-05-10T07:34:37;15.70;99.90
8537;DHT22;4306;50.210;10.628;2023-05-10T07:37:03;15.80;99.90
8537;DHT22;4306;50.210;10.628;2023-05-10T07:39:31;15.60;99.90
8537;DHT22;4306;50.210;10.628;2023-05-10T07:41:58;15.70;99.90
8537;DHT22;4306;50.210;10.628;2023-05-10T07:44:26;15.70;99.90
8537;DHT22;4306;50.210;10.628;2023-05-10T07:46:53;15.90;99.90
8537;DHT22;4306;50.210;10.628;2023-05-10T07:49:21;16.10;99.90
8537;DHT22;4306;50.210;10.628;2023-05-10T07:51:49;16.30;99.90
8537;DHT22;4306;50.210;10.628;2023-05-10T07:54:16;16.20;99.90
8537;DHT22;4306;50.210;10.628;2023-05-10T07:56:43;16.50;99.90
8537;DHT22;4306;50.210;10.628;2023-05-10T07:59:15;16.50;99.90
8537;DHT22;4306;50.210;10.628;2023-05-10T08:01:43;16.70;99.90
8537;DHT22;4306;50.210;10.628;2023-05-10T08:04:10;17.00;99.90
8537;DHT22;4306;50.210;10.628;2023-05-10T08:06:37;16.80;99.90
8537;DHT22;4306;50.210;10.628;2023-05-10T08:09:04;17.00;99.90
8537;DHT22;4306;50.210;10.628;2023-05-10T08:11:31;16.90;99.90
8537;DHT22;4306;50.210;10.628;2023-05-10T08:13:58;17.00;99.90
8537;DHT22;4306;50.210;10.628;2023-05-10T08:16:25;17.40;99.90
8537;DHT22;4306;50.210;10.628;2023-05-10T08:18:53;17.20;99.90
8537;DHT22;4306;50.210;10.628;2023-05-10T08:21:20;17.10;99.90
8537;DHT22;4306;50.210;10.628;2023-05-10T08:23:47;17.30;99.90
8537;DHT22;4306;50.210;10.628;2023-05-10T08:26:14;17.30;99.90
8537;DHT22;4306;50.210;10.628;2023-05-10T08:28:41;17.30;99.90
8537;DHT22;4306;50.210;10.628;2023-05-10T08:31:07;17.10;99.90
8537;DHT22;4306;50.210;10.628;2023-05-10T08:33:34;17.00;99.90
8537;DHT22;4306;50.210;10.628;2023-05-10T08:36:03;17.40;99.90
8537;DHT22;4306;50.210;10.628;2023-05-10T08:38:29;17.20;99.90
8537;DHT22;4306;50.210;10.628;2023-05-10T08:40:56;17.30;99.90
8537;DHT22;4306;50.210;10.628;2023-05-10T08:43:27;17.50;99.90
8537;DHT22;4306;50.210;10.628;2023-05-10T08:45:55;17.20;99.90
8537;DHT22;4306;50.210;10.628;2023-05-10T08:48:23;17.40;99.90
8537;DHT22;4306;50.210;10.628;2023-05-10T08:50:53;17.10;99.90
8537;DHT22;4306;50.210;10.628;2023-05-10T08:53:24;17.30;99.90
8537;DHT22;4306;50.210;10.628;2023-05-10T08:55:53;17.60;99.90
8537;DHT22;4306;50.210;10.628;2023-05-10T08:58:20;17.50;99.90
8537;DHT22;4306;50.210;10.628;2023-05-10T09:00:49;17.40;99.90
8537;DHT22;4306;50.210;10.628;2023-05-10T09:03:16;17.50;99.90
8537;DHT22;4306;50.210;10.628;2023-05-10T09:05:43;17.70;99.90
8537;DHT22;4306;50.210;10.628;2023-05-10T09:08:11;17.70;99.90
8537;DHT22;4306;50.210;10.628;2023-05-10T09:10:40;17.50;99.90
8537;DHT22;4306;50.210;10.628;2023-05-10T09:13:10;17.80;99.90
8537;DHT22;4306;50.210;10.628;2023-05-10T09:15:37;17.90;99.90
8537;DHT22;4306;50.210;10.628;2023-05-10T09:18:04;17.90;99.90
8537;DHT22;4306;50.210;10.628;2023-05-10T09:20:31;17.90;99.90
8537;DHT22;4306;50.210;10.628;2023-05-10T09:22:58;17.80;99.90
8537;DHT22;4306;50.210;10.628;2023-05-10T09:25:24;17.80;99.90
8537;DHT22;4306;50.210;10.628;2023-05-10T09:27:53;18.00;99.90
8537;DHT22;4306;50.210;10.628;2023-05-10T09:30:24;17.70;99.90
8537;DHT22;4306;50.210;10.628;2023-05-10T09:32:52;17.20;99.90
8537;DHT22;4306;50.210;10.628;2023-05-10T09:35:21;17.30;99.90
8537;DHT22;4306;50.210;10.628;2023-05-10T09:37:50;17.60;99.90
8537;DHT22;4306;50.210;10.628;2023-05-10T09:40:19;18.10;99.90
8537;DHT22;4306;50.210;10.628;2023-05-10T09:42:53;18.10;99.90
8537;DHT22;4306;50.210;10.628;2023-05-10T09:45:21;18.00;99.90
8537;DHT22;4306;50.210;10.628;2023-05-10T09:47:48;18.00;99.90
8537;DHT22;4306;50.210;10.628;2023-05-10T09:50:15;17.80;99.90
8537;DHT22;4306;50.210;10.628;2023-05-10T09:52:50;17.80;99.90
8537;DHT22;4306;50.210;10.628;2023-05-10T09:55:19;17.70;99.90
8537;DHT22;4306;50.210;10.628;2023-05-10T09:57:46;17.60;99.90
8537;DHT22;4306;50.210;10.628;2023-05-10T10:00:18;17.50;99.90
8537;DHT22;4306;50.210;10.628;2023-05-10T10:02:47;17.30;99.90
8537;DHT22;4306;50.210;10.628;2023-05-10T10:05:14;17.40;99.90
8537;DHT22;4306;50.210;10.628;2023-05-10T10:07:41;17.10;99.90
8537;DHT22;4306;50.210;10.628;2023-05-10T10:10:09;17.30;99.90
8537;DHT22;4306;50.210;10.628;2023-05-10T10:12:39;17.20;99.90
8537;DHT22;4306;50.210;10.628;2023-05-10T10:15:07;17.30;99.90
8537;DHT22;4306;50.210;10.628;2023-05-10T10:17:36;17.20;99.90
8537;DHT22;4306;50.210;10.628;2023-05-10T10:20:04;17.30;99.90
8537;DHT22;4306;50.210;10.628;2023-05-10T10:22:31;17.40;99.90
8537;DHT22;4306;50.210;10.628;2023-05-10T10:24:58;17.40;99.90
8537;DHT22;4306;50.210;10.628;2023-05-10T10:27:32;17.40;99.90
8537;DHT22;4306;50.210;10.628;2023-05-10T10:30:06;17.70;99.90
8537;DHT22;4306;50.210;10.628;2023-05-10T10:35:36;18.00;99.90
8537;DHT22;4306;50.210;10.628;2023-05-10T10:38:03;17.70;99.90
8537;DHT22;4306;50.210;10.628;2023-05-10T10:40:31;17.80;99.90
8537;DHT22;4306;50.210;10.628;2023-05-10T10:42:59;18.20;99.90
8537;DHT22;4306;50.210;10.628;2023-05-10T10:46:08;18.50;99.90
8537;DHT22;4306;50.210;10.628;2023-05-10T10:48:36;18.70;99.90
8537;DHT22;4306;50.210;10.628;2023-05-10T10:51:03;18.60;99.90
8537;DHT22;4306;50.210;10.628;2023-05-10T10:53:29;18.70;99.90
8537;DHT22;4306;50.210;10.628;2023-05-10T10:56:05;18.80;99.90
8537;DHT22;4306;50.210;10.628;2023-05-10T10:58:35;18.80;99.90
8537;DHT22;4306;50.210;10.628;2023-05-10T11:01:19;18.80;99.90
8537;DHT22;4306;50.210;10.628;2023-05-10T11:04:17;18.60;99.90
8537;DHT22;4306;50.210;10.628;2023-05-10T11:06:45;18.70;99.90
8537;DHT22;4306;50.210;10.628;2023-05-10T11:09:12;18.70;99.90
8537;DHT22;4306;50.210;10.628;2023-05-10T11:11:50;18.50;99.90
8537;DHT22;4306;50.210;10.628;2023-05-10T11:14:20;18.80;99.90
8537;DHT22;4306;50.210;10.628;2023-05-10T11:16:48;18.80;99.90
8537;DHT22;4306;50.210;10.628;2023-05-10T11:19:16;18.90;99.90
8537;DHT22;4306;50.210;10.628;2023-05-10T11:21:49;18.80;99.90
8537;DHT22;4306;50.210;10.628;2023-05-10T11:24:17;18.60;99.90
8537;DHT22;4306;50.210;10.628;2023-05-10T11:26:45;18.50;99.90
8537;DHT22;4306;50.210;10.628;2023-05-10T11:29:13;18.50;99.90
8537;DHT22;4306;50.210;10.628;2023-05-10T11:31:43;18.40;99.90
8537;DHT22;4306;50.210;10.628;2023-05-10T11:34:10;18.40;99.90
8537;DHT22;4306;50.210;10.628;2023-05-10T11:36:39;18.50;99.90
8537;DHT22;4306;50.210;10.628;2023-05-10T11:39:08;18.70;99.90
8537;DHT22;4306;50.210;10.628;2023-05-10T11:41:36;18.70;99.90
8537;DHT22;4306;50.210;10.628;2023-05-10T11:44:03;18.60;99.90
8537;DHT22;4306;50.210;10.628;2023-05-10T11:46:30;18.70;99.90
8537;DHT22;4306;50.210;10.628;2023-05-10T11:48:58;18.70;99.90
8537;DHT22;4306;50.210;10.628;2023-05-10T11:51:27;18.60;99.90
8537;DHT22;4306;50.210;10.628;2023-05-10T11:53:55;18.40;99.90
8537;DHT22;4306;50.210;10.628;2023-05-10T11:56:24;18.40;99.90
8537;DHT22;4306;50.210;10.628;2023-05-10T11:58:53;18.10;99.90
8537;DHT22;4306;50.210;10.628;2023-05-10T12:01:21;17.80;99.90
8537;DHT22;4306;50.210;10.628;2023-05-10T12:03:49;17.80;99.90
8537;DHT22;4306;50.210;10.628;2023-05-10T12:06:17;17.90;99.90
8537;DHT22;4306;50.210;10.628;2023-05-10T12:08:44;17.70;99.90
8537;DHT22;4306;50.210;10.628;2023-05-10T12:11:12;17.70;99.90
8537;DHT22;4306;50.210;10.628;2023-05-10T12:13:43;17.20;99.90
8537;DHT22;4306;50.210;10.628;2023-05-10T12:16:16;16.90;99.90
8537;DHT22;4306;50.210;10.628;2023-05-10T12:18:43;17.50;99.90
8537;DHT22;4306;50.210;10.628;2023-05-10T12:21:11;17.10;99.90
8537;DHT22;4306;50.210;10.628;2023-05-10T12:23:38;17.80;99.90
8537;DHT22;4306;50.210;10.628;2023-05-10T12:26:05;17.70;99.90
8537;DHT22;4306;50.210;10.628;2023-05-10T12:28:33;17.30;99.90
8537;DHT22;4306;50.210;10.628;2023-05-10T12:31:02;17.40;99.90
8537;DHT22;4306;50.210;10.628;2023-05-10T12:33:35;17.50;99.90
8537;DHT22;4306;50.210;10.628;2023-05-10T12:36:05;17.80;99.90
8537;DHT22;4306;50.210;10.628;2023-05-10T12:38:33;17.90;99.90
8537;DHT22;4306;50.210;10.628;2023-05-10T12:41:01;18.40;99.90
8537;DHT22;4306;50.210;10.628;2023-05-10T12:43:28;18.30;99.90
8537;DHT22;4306;50.210;10.628;2023-05-10T12:45:55;18.30;99.90
8537;DHT22;4306;50.210;10.628;2023-05-10T12:48:24;18.50;99.90
8537;DHT22;4306;50.210;10.628;2023-05-10T12:50:50;18.60;99.90
8537;DHT22;4306;50.210;10.628;2023-05-10T12:53:17;19.10;99.90
8537;DHT22;4306;50.210;10.628;2023-05-10T12:55:44;19.00;99.90
8537;DHT22;4306;50.210;10.628;2023-05-10T12:58:11;18.90;99.90
8537;DHT22;4306;50.210;10.628;2023-05-10T13:00:38;19.10;99.90
8537;DHT22;4306;50.210;10.628;2023-05-10T13:03:04;19.30;99.90
8537;DHT22;4306;50.210;10.628;2023-05-10T13:05:33;19.50;99.20
8537;DHT22;4306;50.210;10.628;2023-05-10T13:08:00;19.30;98.40
8537;DHT22;4306;50.210;10.628;2023-05-10T13:10:28;19.40;99.00
8537;DHT22;4306;50.210;10.628;2023-05-10T13:12:55;19.90;99.90
8537;DHT22;4306;50.210;10.628;2023-05-10T13:15:22;19.70;98.30
8537;DHT22;4306;50.210;10.628;2023-05-10T13:17:49;19.30;99.00
8537;DHT22;4306;50.210;10.628;2023-05-10T13:20:16;19.70;99.80
8537;DHT22;4306;50.210;10.628;2023-05-10T13:22:44;19.90;98.90
8537;DHT22;4306;50.210;10.628;2023-05-10T13:25:11;20.10;98.40
8537;DHT22;4306;50.210;10.628;2023-05-10T13:27:39;19.60;98.80
8537;DHT22;4306;50.210;10.628;2023-05-10T13:30:07;19.50;98.00
8537;DHT22;4306;50.210;10.628;2023-05-10T13:32:34;19.70;99.00
8537;DHT22;4306;50.210;10.628;2023-05-10T13:35:01;19.90;98.50
8537;DHT22;4306;50.210;10.628;2023-05-10T13:37:28;20.40;99.10
8537;DHT22;4306;50.210;10.628;2023-05-10T13:39:57;20.20;98.80
8537;DHT22;4306;50.210;10.628;2023-05-10T13:42:24;20.50;99.00
8537;DHT22;4306;50.210;10.628;2023-05-10T13:44:50;20.50;98.10
8537;DHT22;4306;50.210;10.628;2023-05-10T13:47:17;20.40;98.60
8537;DHT22;4306;50.210;10.628;2023-05-10T13:49:44;20.20;98.00
8537;DHT22;4306;50.210;10.628;2023-05-10T13:52:11;20.20;98.00
8537;DHT22;4306;50.210;10.628;2023-05-10T13:54:39;20.20;96.80
8537;DHT22;4306;50.210;10.628;2023-05-10T13:57:07;20.40;97.40
8537;DHT22;4306;50.210;10.628;2023-05-10T13:59:34;19.70;96.40
8537;DHT22;4306;50.210;10.628;2023-05-10T14:02:01;19.80;98.00
8537;DHT22;4306;50.210;10.628;2023-05-10T14:04:28;20.20;98.10
8537;DHT22;4306;50.210;10.628;2023-05-10T14:06:56;20.40;97.20
8537;DHT22;4306;50.210;10.628;2023-05-10T14:09:23;21.00;97.40
8537;DHT22;4306;50.210;10.628;2023-05-10T14:11:50;20.80;97.00
8537;DHT22;4306;50.210;10.628;2023-05-10T14:14:18;20.70;96.30
8537;DHT22;4306;50.210;10.628;2023-05-10T14:16:46;20.50;95.40
8537;DHT22;4306;50.210;10.628;2023-05-10T14:19:13;20.50;96.40
8537;DHT22;4306;50.210;10.628;2023-05-10T14:21:40;20.50;95.40
8537;DHT22;4306;50.210;10.628;2023-05-10T14:24:06;20.00;94.90
8537;DHT22;4306;50.210;10.628;2023-05-10T14:26:33;19.20;96.60
8537;DHT22;4306;50.210;10.628;2023-05-10T14:29:00;19.30;97.40
8537;DHT22;4306;50.210;10.628;2023-05-10T14:31:29;19.20;97.70
8537;DHT22;4306;50.210;10.628;2023-05-10T14:33:56;19.00;97.90
8537;DHT22;4306;50.210;10.628;2023-05-10T14:36:24;19.10;97.70
8537;DHT22;4306;50.210;10.628;2023-05-10T14:38:51;18.80;97.00
8537;DHT22;4306;50.210;10.628;2023-05-10T14:41:18;18.50;97.30
8537;DHT22;4306;50.210;10.628;2023-05-10T14:43:45;18.60;97.40
8537;DHT22;4306;50.210;10.628;2023-05-10T14:46:11;18.90;97.30
8537;DHT22;4306;50.210;10.628;2023-05-10T14:48:39;18.80;97.50
8537;DHT22;4306;50.210;10.628;2023-05-10T14:51:06;18.80;97.60
8537;DHT22;4306;50.210;10.628;2023-05-10T14:53:33;18.70;97.40
8537;DHT22;4306;50.210;10.628;2023-05-10T14:56:00;18.90;97.70
8537;DHT22;4306;50.210;10.628;2023-05-10T14:58:28;18.80;97.00
8537;DHT22;4306;50.210;10.628;2023-05-10T15:00:55;18.00;97.60
8537;DHT22;4306;50.210;10.628;2023-05-10T15:03:23;18.40;97.30
8537;DHT22;4306;50.210;10.628;2023-05-10T15:05:51;18.30;96.70
8537;DHT22;4306;50.210;10.628;2023-05-10T15:08:18;17.80;97.20
8537;DHT22;4306;50.210;10.628;2023-05-10T15:10:45;18.00;97.90
8537;DHT22;4306;50.210;10.628;2023-05-10T15:13:13;18.30;97.20
8537;DHT22;4306;50.210;10.628;2023-05-10T15:15:39;16.80;98.50
8537;DHT22;4306;50.210;10.628;2023-05-10T15:18:06;16.60;99.20
8537;DHT22;4306;50.210;10.628;2023-05-10T15:20:33;17.10;98.80
8537;DHT22;4306;50.210;10.628;2023-05-10T15:23:02;17.30;98.60
8537;DHT22;4306;50.210;10.628;2023-05-10T15:25:30;17.30;98.50
8537;DHT22;4306;50.210;10.628;2023-05-10T15:28:00;16.80;99.10
8537;DHT22;4306;50.210;10.628;2023-05-10T15:30:27;17.20;98.90
8537;DHT22;4306;50.210;10.628;2023-05-10T15:32:54;17.30;98.70
8537;DHT22;4306;50.210;10.628;2023-05-10T15:35:21;17.10;99.00
8537;DHT22;4306;50.210;10.628;2023-05-10T15:37:48;16.90;99.00
8537;DHT22;4306;50.210;10.628;2023-05-10T15:40:16;17.20;98.70
8537;DHT22;4306;50.210;10.628;2023-05-10T15:42:43;16.90;99.00
8537;DHT22;4306;50.210;10.628;2023-05-10T15:45:10;17.20;98.80
8537;DHT22;4306;50.210;10.628;2023-05-10T15:47:37;16.90;99.00
8537;DHT22;4306;50.210;10.628;2023-05-10T15:50:06;17.40;99.70
8537;DHT22;4306;50.210;10.628;2023-05-10T15:52:33;17.00;99.30
8537;DHT22;4306;50.210;10.628;2023-05-10T15:55:00;17.30;99.20
8537;DHT22;4306;50.210;10.628;2023-05-10T15:57:29;17.50;98.90